Terminal Aerodrome Forecast
Issued by NWS Sioux Falls, SD

Home | Current Version | Previous Version | Graphics & Text | Print | Product List | Glossary Off
Versions: 1 2 3 4 5 6 7 8 9 10 11 12 13 14

000
FTUS43 KFSD 222326 CCA
TAFHON
TAF COR
KHON 222326Z 2300/2324 29009KT P6SM SCT025 BKN050
     FM230300 25005KT P6SM SKC
     FM231000 22004KT P6SM SKC
     FM231600 15006KT P6SM SKC=

USA.gov is the U.S. government's official web portal to all federal, state and local government web resources and services.